createdAt,value
2024-02-28T00:01:34.043Z,10.70
2024-02-28T00:06:43.868Z,9.43
2024-02-28T00:11:51.116Z,12.95
2024-02-28T00:22:01.358Z,11.95
2024-02-28T00:27:08.100Z,12.18
2024-02-28T00:32:12.362Z,13.38
2024-02-28T00:37:34.954Z,13.48
2024-02-28T00:42:50.453Z,9.85
2024-02-28T00:48:00.770Z,9.43
2024-02-28T00:53:12.593Z,8.10
2024-02-28T00:58:20.992Z,11.18
2024-02-28T01:03:27.003Z,8.40
2024-02-28T01:08:37.326Z,11.15
2024-02-28T01:13:43.213Z,8.02
2024-02-28T01:18:51.025Z,11.00
2024-02-28T01:24:04.683Z,7.40
2024-02-28T01:29:10.435Z,7.45
2024-02-28T01:34:14.893Z,7.68
2024-02-28T01:39:25.278Z,12.38
2024-02-28T01:44:29.631Z,9.13
2024-02-28T01:49:34.799Z,11.80
2024-02-28T01:54:41.394Z,10.25
2024-02-28T01:59:58.075Z,9.65
2024-02-28T02:05:06.104Z,8.30
2024-02-28T02:10:14.446Z,8.43
2024-02-28T02:15:23.421Z,9.10
2024-02-28T02:20:35.664Z,6.30
2024-02-28T02:25:50.367Z,7.95
2024-02-28T02:30:55.812Z,8.68
2024-02-28T02:36:01.899Z,8.82
2024-02-28T02:41:10.668Z,9.48
2024-02-28T02:46:22.730Z,8.45
2024-02-28T02:51:28.785Z,8.23
2024-02-28T02:56:36.113Z,8.47
2024-02-28T03:01:43.883Z,8.38
2024-02-28T03:06:54.048Z,12.10
2024-02-28T03:12:13.262Z,9.65
2024-02-28T03:17:20.007Z,9.45
2024-02-28T03:22:24.745Z,8.38
2024-02-28T03:27:31.616Z,9.23
2024-02-28T03:32:38.811Z,8.27
2024-02-28T03:37:58.959Z,8.07
2024-02-28T03:43:07.702Z,9.18
2024-02-28T03:48:23.471Z,8.73
2024-02-28T03:53:27.813Z,14.70
2024-02-28T03:58:36.133Z,13.90
2024-02-28T04:03:41.180Z,10.90
2024-02-28T04:08:49.451Z,9.77
2024-02-28T04:14:00.274Z,13.27
2024-02-28T04:19:04.574Z,11.13
2024-02-28T04:24:09.448Z,11.57
2024-02-28T04:29:17.591Z,12.68
2024-02-28T04:34:24.429Z,13.65
2024-02-28T04:39:28.402Z,12.95
2024-02-28T04:44:33.928Z,11.10
2024-02-28T04:50:14.079Z,12.98
2024-02-28T05:02:54.913Z,15.52
2024-02-28T05:18:17.769Z,16.25
2024-02-28T05:34:24.424Z,14.38
2024-02-28T05:49:56.603Z,16.83
2024-02-28T06:15:07.494Z,19.08
2024-02-28T06:42:04.713Z,16.20
2024-02-28T07:08:39.489Z,15.65
2024-02-28T07:33:53.802Z,22.95
2024-02-28T08:18:15.549Z,19.35
2024-02-28T08:37:42.852Z,21.48
2024-02-28T08:44:09.959Z,17.48
2024-02-28T09:09:50.263Z,23.23
2024-02-28T09:55:12.418Z,18.20
2024-02-28T10:01:19.841Z,21.65
2024-02-28T10:07:40.641Z,26.45
2024-02-28T10:13:16.626Z,21.10
2024-02-28T10:19:19.022Z,31.65
2024-02-28T10:25:23.695Z,22.75
2024-02-28T10:31:39.676Z,26.73
2024-02-28T10:43:31.648Z,27.55
2024-02-28T10:49:17.854Z,28.17
2024-02-28T10:57:51.085Z,25.02
2024-02-28T11:02:46.388Z,22.90
2024-02-28T11:08:13.709Z,24.48
2024-02-28T11:41:49.045Z,15.05
2024-02-28T11:53:48.180Z,19.17
2024-02-28T11:59:32.065Z,18.83
2024-02-28T12:18:05.125Z,17.67
2024-02-28T12:46:19.261Z,20.92
2024-02-28T12:58:42.783Z,26.13
2024-02-28T13:04:45.968Z,21.38
2024-02-28T13:17:55.515Z,18.50
2024-02-28T13:24:01.448Z,15.68
2024-02-28T13:30:15.733Z,17.45
2024-02-28T13:36:41.806Z,14.67
2024-02-28T13:48:21.803Z,19.67
2024-02-28T13:49:12.192Z,21.52
2024-02-28T14:01:32.931Z,15.90
2024-02-28T14:46:30.052Z,17.52
2024-02-28T14:52:23.430Z,12.38
2024-02-28T15:05:37.517Z,16.88
2024-02-28T15:10:37.428Z,9.98
2024-02-28T15:15:54.399Z,13.63
2024-02-28T15:33:56.451Z,16.17
2024-02-28T15:39:31.254Z,19.10
2024-02-28T15:44:57.167Z,14.52
2024-02-28T15:50:40.052Z,11.82
2024-02-28T15:56:12.135Z,14.73
2024-02-28T16:01:35.487Z,10.43
2024-02-28T16:15:13.585Z,12.95
2024-02-28T16:21:19.989Z,14.20
2024-02-28T16:27:04.010Z,16.92
2024-02-28T16:32:55.619Z,10.68
2024-02-28T16:38:29.520Z,10.60
2024-02-28T16:44:02.209Z,13.52
2024-02-28T16:49:23.396Z,17.20
2024-02-28T16:54:32.229Z,10.27
2024-02-28T16:59:47.023Z,11.88
2024-02-28T17:05:04.088Z,9.98
2024-02-28T17:11:19.087Z,10.82
2024-02-28T17:17:29.154Z,11.23
2024-02-28T17:23:29.675Z,11.55
2024-02-28T17:29:03.401Z,12.00
2024-02-28T17:35:03.592Z,9.90
2024-02-28T17:53:24.366Z,7.45
2024-02-28T17:59:00.711Z,10.00
2024-02-28T18:04:26.757Z,9.27
2024-02-28T18:16:29.597Z,7.97
2024-02-28T18:21:52.152Z,9.40
2024-02-28T18:27:16.289Z,5.82
2024-02-28T18:32:59.819Z,5.07
2024-02-28T18:38:27.409Z,8.13
2024-02-28T18:43:56.221Z,6.07
2024-02-28T18:49:33.622Z,5.25
2024-02-28T18:55:12.877Z,6.97
2024-02-28T19:06:38.940Z,5.25
2024-02-28T19:12:09.246Z,4.57
2024-02-28T19:24:24.508Z,4.90
2024-02-28T19:29:52.766Z,5.45
2024-02-28T19:35:13.896Z,5.45
2024-02-28T19:40:35.994Z,5.57
2024-02-28T19:46:14.496Z,6.13
2024-02-28T19:51:57.016Z,4.97
2024-02-28T19:57:53.463Z,5.82
2024-02-28T20:10:04.745Z,7.72
2024-02-28T20:15:26.905Z,7.38
2024-02-28T20:21:18.224Z,5.93
2024-02-28T20:26:30.369Z,5.57
2024-02-28T20:32:08.130Z,7.35
2024-02-28T20:37:42.719Z,11.00
2024-02-28T20:48:59.874Z,7.57
2024-02-28T20:54:14.475Z,9.68
2024-02-28T21:00:20.902Z,11.32
2024-02-28T21:22:06.048Z,8.18
2024-02-28T22:00:20.738Z,8.68
2024-02-28T22:12:35.117Z,10.20
2024-02-28T22:19:20.935Z,9.23
2024-02-28T22:36:54.867Z,8.77
2024-02-28T22:56:53.883Z,12.43
2024-02-28T23:02:40.318Z,11.32
2024-02-28T23:08:37.597Z,18.05
2024-02-28T23:14:50.435Z,10.18
2024-02-28T23:20:11.112Z,11.00
2024-02-28T23:31:49.071Z,11.88
2024-02-28T23:43:43.945Z,10.52
2024-02-28T23:49:28.696Z,10.05
2024-02-28T23:54:56.707Z,19.05
